Scroll down
FLIGHT INFORMATION
PMDG Flight Operations

PFO817

At Arrival Gate

KDEN
 KSAN
DATE: 2018-08-18
GATE: A33W
GATE DEPARTURE: 01:06
TAKEOFF: 01:22
DATE: 2018-08-18
GATE: 51
LANDING: 03:14
GATE ARRIVAL: 03:21
FLIGHT DATA
Crew: 
Speed: 
511 kts
Altitude: 
38,039 ft
Stage Length: 
740.5 nm
Block Time: 
2.3 hrs
Flight Time: 
1.9 hrs
Fuel Used: 
42,365 lb
Cleared Route: 
TRACK DATA
50,000 ft 1,000 kts
AIRCRAFT INFO AND CUMULATIVE STATS
Aircraft Type: 
B744
Registration: 
SELCAL: 
MSN/LN: 
0 / 3
Total Flights: 
8
Total Block Time: 
18.2 hrs
Total Flight Time: 
15.9 hrs
Total Fuel Time: 
356,924 lb
DATALINK LOG | Newest first | Current as of: 2020-11-29 22:24:54
LABEL SEQUENCE CONTENT Dn/Up
QD211403:21 38.1▼ Dn
QC014403:14▼ Dn
2U5232KSAN 180243Z 28006KT 10SM BKN016 24/20 A3003 RMK AO2 T02440200▲ Up
2S5043KSAN▼ Dn
GA3414GATE 51▲ Up
GR3240KSAN▼ Dn
QB224201:22▼ Dn
QA062601:06 80.5▼ Dn
2U5838KDEN 180053Z 10020G30KT 10SM FEW085 FEW150 SCT220 22/15 A3023 RMK AO2 PK WND 09030/0044 WSHFT 0006 SLP165 T02170150▲ Up
2S0575KDEN▼ Dn


AIRCRAFT HISTORY
FLIGHT DATE FLIGHT NO. ORIGIN DESTINATION CLEARED ROUTE BLOCK TIME FLIGHT TIME FUEL USED PILOT
2019-04-16PFO260EGKK EGKK EGKK KKW02 KKE09 KKE11 KKE15 SUNAV KKE38 BIG CF26L RW26L0.5 hrs0.2 hrs9,286 lbChris Makris
2018-11-16PFO1EGLL EGKK 0.7 hrs0.4 hrs11,447 lbMatthew Gales
2018-11-04PFO1104KIAD EGLL RIGNZ JCOBY GRIIM SOOKI SWANN BROSS STIKY OOD DAVYS BRAND RBV LLUND BAYYS PUT TUSKY NICSO 4850N 5140N 5230N 5220N LIMRI XETBO LODLA EVRIN NEKAP ABDUK NUMPO OKESI BEDEK NIGIT D271L OCK6.1 hrs6 hrs124,114 lbKyle Rodgers
2018-08-18PFO818KSAN KIAD 4.5 hrs4.1 hrs87,592 lbKyle Rodgers
2018-08-18PFO817KDEN KSAN 2.3 hrs1.9 hrs42,365 lbKyle Rodgers
2018-05-27PFO27KLAX KDEN 2.1 hrs1.8 hrs39,413 lbKyle Rodgers
2018-05-26KLAS KLAX 1 hrs0.8 hrs19,440 lbKyle Rodgers
2018-03-28PFO13KLAX KLAS ORCKA2 MISEN KEPEC61.1 hrs0.8 hrs23,267 lbKyle Rodgers